Portada
METAR-TAF:

METAR-TAF

Aeroports :

Maracaibo, Veneçuela

latitud: 10-34N, longitud: 071-44W, altitud: 66 m

Observació

L'informe es va fer fa 49 minuts, a les 19:02 UTC
Temperatura
Pressió

METAR: SVMC 141902Z AUTO NIL

Hora: 15:51 (19:51 UTC)

Pronòstic

L'informe es va fer fa 3 hores i 51 minuts, a les 16:00 UTC
Pronòstic vàlid del 14 a les 18 UTC al 15 a les 18 UTC
Vent 5 kt del Sud/Sud-Est
Visibilitat 10 km o més
Núvols disperses a una alçada de 1600 ft
Evolucionant progressivament
l' 14 a les 18 UTC al 14 a les 22 UTC
Vent 6 kt del Est/Sud-Est
Visibilitat: 9000 m
Cel ennuvolat a una alçada de 1600 ft
plugim

TAF: SVMC 141600Z 1418/1518 15005KT 9999 SCT016 TX34/19Z TN24/09Z BECMG 1418/1422 12006KT 9000 -DZ BKN016

Observacions i pronòstics meteorològics de més de 4000 aeroports (METAR i TAF).

Les estacions disponibles són els punts grocs i vermells al mapa.

Posi el ratolí al punt desitjat per veure el nom de l'estació.

Feu clic per veure les observacions i els pronòstics meteorològics.

Per canviar el mapa: feu clic els botons verds amb una creu de color negre per apropar; al botó verd amb un guió per allunyar la imatge; o en les fletxes verdes per a mapes adjacents.


METAR-TAF: